Time;durP1;ratioP1;P1;durP2;ratioP2;P2;SDS_P1;SDS_P2;PMS_P1;PMS_P2;Temp;Humidity;BMP_temperature;BMP_pressure;BME280_temperature;BME280_humidity;BME280_pressure;Samples;Min_cycle;Max_cycle;Signal;HPM_P1;HPM_P2
2022/08/08 00:08:19;;;;;;;68.55;64.65;;;;;;;25.04;100.00;101018.84;4940184;29;20081;-83
2022/08/08 00:41:25;;;;;;;;;;;;;;;;;;;;;
2022/08/08 00:44:41;;;;;;;49.30;46.42;;;;;;;23.31;100.00;101035.22;4937830;29;20055;-83
2022/08/08 00:47:45;;;;;;;50.45;47.42;;;;;;;23.58;100.00;101040.13;4963100;28;20460;-83
2022/08/08 00:51:23;;;;;;;;;;;;;;;;;;;;;
2022/08/08 00:54:22;;;;;;;56.38;53.22;;;;;;;23.27;100.00;101039.59;4956175;28;20062;-83
2022/08/08 00:57:28;;;;;;;56.63;53.55;;;;;;;23.16;100.00;101038.84;4981488;28;20050;-81
2022/08/08 01:06:46;;;;;;;;;;;;;;;;;;;;;
2022/08/08 01:09:58;;;;;;;;;;;;;;;;;;;;;
2022/08/08 01:28:17;;;;;;;46.92;44.13;;;;;;;22.43;100.00;101065.78;4790815;29;20185;-84
2022/08/08 01:31:37;;;;;;;;;;;;;;;;;;;;;
2022/08/08 01:35:06;;;;;;;;;;;;;;;;;;;;;
2022/08/08 01:38:13;;;;;;;56.80;53.42;;;;;;;22.25;100.00;101081.53;4945988;29;20073;-82
2022/08/08 01:40:58;;;;;;;56.03;52.63;;;;;;;22.41;100.00;101083.06;4946606;29;20122;-81
2022/08/08 01:44:02;;;;;;;;;;;;;;;;;;;;;
2022/08/08 01:47:41;;;;;;;;;;;;;;;;;;;;;
2022/08/08 01:50:36;;;;;;;;;;;;;;;;;;;;;
2022/08/08 02:03:10;;;;;;;64.57;60.42;;;;;;;21.34;100.00;101093.97;5051344;23;20069;-84
2022/08/08 02:05:49;;;;;;;53.72;50.78;;;;;;;21.78;100.00;101101.56;5013143;28;20053;-81
2022/08/08 02:08:25;;;;;;;59.00;55.78;;;;;;;21.71;100.00;101096.44;5003507;28;20049;-83
2022/08/08 02:11:05;;;;;;;48.60;45.53;;;;;;;21.22;100.00;101099.63;5005967;28;20050;-84
2022/08/08 02:13:41;;;;;;;49.13;46.20;;;;;;;21.33;100.00;101096.94;5005837;28;20057;-81
2022/08/08 02:16:18;;;;;;;59.90;56.35;;;;;;;21.29;100.00;101099.38;4997510;28;20054;-83
2022/08/08 02:18:54;;;;;;;59.25;55.85;;;;;;;21.34;100.00;101102.09;5010659;28;20054;-83
2022/08/08 02:24:17;;;;;;;54.67;51.33;;;;;;;20.74;100.00;101107.06;5008642;28;20053;-84
2022/08/08 02:26:51;;;;;;;60.55;56.55;;;;;;;20.93;100.00;101109.28;5012106;28;20163;-83
2022/08/08 02:29:33;;;;;;;54.38;50.80;;;;;;;21.16;100.00;101106.09;5005201;28;20081;-84
2022/08/08 02:32:38;;;;;;;56.28;52.88;;;;;;;21.10;100.00;101107.16;5004881;28;20049;-82
2022/08/08 02:35:30;;;;;;;44.35;41.20;;;;;;;21.26;100.00;101121.50;4920561;28;20051;-83
2022/08/08 02:38:25;;;;;;;48.45;44.90;;;;;;;21.19;100.00;101123.66;4974220;28;20041;-83
2022/08/08 02:41:25;;;;;;;47.75;44.78;;;;;;;21.18;100.00;101125.56;5007931;28;20046;-85
2022/08/08 02:44:28;;;;;;;46.40;43.22;;;;;;;21.09;100.00;101129.88;5002444;28;20065;-84
2022/08/08 02:47:44;;;;;;;51.47;48.10;;;;;;;21.06;100.00;101130.41;5001524;28;20061;-85
2022/08/08 02:50:49;;;;;;;55.55;51.95;;;;;;;20.98;100.00;101133.59;5008628;28;20049;-84
2022/08/08 02:53:42;;;;;;;47.92;44.45;;;;;;;21.09;100.00;101137.13;4987900;28;20057;-83
2022/08/08 02:56:41;;;;;;;56.47;53.17;;;;;;;21.20;100.00;101138.78;5002498;28;20042;-82
2022/08/08 02:59:56;;;;;;;50.65;47.60;;;;;;;20.98;100.00;101137.09;5001600;28;20058;-84
2022/08/08 03:02:46;;;;;;;66.80;62.83;;;;;;;21.00;100.00;101140.38;5009276;28;20116;-83
2022/08/08 03:05:34;;;;;;;49.35;46.08;;;;;;;20.96;100.00;101139.25;5004451;28;20057;-81
2022/08/08 03:08:35;;;;;;;45.05;42.35;;;;;;;21.09;100.00;101134.44;4998371;28;20426;-84
2022/08/08 03:11:52;;;;;;;38.50;35.80;;;;;;;21.00;100.00;101143.06;4998826;28;20463;-83
2022/08/08 03:14:54;;;;;;;46.10;43.20;;;;;;;21.11;100.00;101145.78;4978998;28;20483;-82
2022/08/08 03:17:27;;;;;;;37.65;34.92;;;;;;;21.06;100.00;101141.19;4967664;28;20775;-83
2022/08/08 03:20:00;;;;;;;33.78;31.15;;;;;;;20.93;100.00;101149.78;5004093;28;20077;-83
2022/08/08 03:22:29;;;;;;;33.65;31.30;;;;;;;20.63;100.00;101145.88;5002502;28;20050;-83
2022/08/08 03:24:58;;;;;;;32.60;29.60;;;;;;;20.48;100.00;101143.88;5004408;28;20101;-83
2022/08/08 03:27:33;;;;;;;32.92;30.60;;;;;;;20.45;100.00;101149.78;5002558;28;20046;-82
2022/08/08 03:30:06;;;;;;;34.05;31.33;;;;;;;20.61;100.00;101150.72;5013782;28;20125;-84
2022/08/08 03:35:22;;;;;;;31.98;29.70;;;;;;;20.40;100.00;101157.06;5000943;28;20054;-83
2022/08/08 03:37:50;;;;;;;31.65;29.23;;;;;;;20.75;100.00;101153.75;5004410;28;20059;-82
2022/08/08 03:40:22;;;;;;;32.13;29.63;;;;;;;20.67;100.00;101162.38;5009307;28;20057;-82
2022/08/08 03:42:50;;;;;;;34.90;32.08;;;;;;;20.63;100.00;101159.34;5012305;28;20494;-82
2022/08/08 03:45:18;;;;;;;30.45;28.15;;;;;;;20.74;100.00;101160.22;4998636;28;20046;-82
2022/08/08 03:47:56;;;;;;;31.92;29.33;;;;;;;20.72;100.00;101160.47;5009621;28;20060;-82
2022/08/08 03:50:24;;;;;;;33.78;30.92;;;;;;;20.53;100.00;101168.22;5004724;28;20125;-82
2022/08/08 03:52:51;;;;;;;32.78;30.27;;;;;;;20.55;100.00;101168.78;5001551;28;20053;-81
2022/08/08 03:55:21;;;;;;;32.05;29.45;;;;;;;20.68;100.00;101170.19;5002465;28;20065;-83
2022/08/08 03:57:50;;;;;;;30.98;28.60;;;;;;;20.86;100.00;101171.63;5011413;28;20054;-81
2022/08/08 04:00:19;;;;;;;31.75;28.90;;;;;;;20.83;100.00;101169.44;5003334;28;20474;-82
2022/08/08 04:02:54;;;;;;;32.20;29.60;;;;;;;20.76;100.00;101176.97;5005276;28;20069;-83
2022/08/08 04:05:25;;;;;;;32.88;30.20;;;;;;;20.97;100.00;101172.50;5000289;28;20046;-85
2022/08/08 04:07:52;;;;;;;31.25;28.85;;;;;;;20.96;100.00;101168.94;5008916;28;20053;-83
2022/08/08 04:10:20;;;;;;;30.45;27.85;;;;;;;20.99;100.00;101178.41;5003040;28;20053;-83
2022/08/08 04:12:48;;;;;;;32.40;29.92;;;;;;;20.96;100.00;101174.34;5006593;28;20066;-85
2022/08/08 04:15:15;;;;;;;31.65;29.23;;;;;;;20.84;100.00;101179.16;5003340;28;20474;-83
2022/08/08 04:17:43;;;;;;;32.22;29.75;;;;;;;21.01;100.00;101179.78;5011975;28;20058;-84
2022/08/08 04:20:10;;;;;;;31.65;29.10;;;;;;;20.70;100.00;101180.72;5010020;28;20057;-84
2022/08/08 04:22:37;;;;;;;32.00;29.75;;;;;;;20.81;100.00;101185.91;5007491;28;20061;-83
2022/08/08 04:25:07;;;;;;;31.20;28.88;;;;;;;20.91;100.00;101187.84;5001137;28;20053;-84
2022/08/08 04:27:37;;;;;;;32.53;29.83;;;;;;;21.01;100.00;101195.97;5006075;28;20482;-83
2022/08/08 04:30:07;;;;;;;31.90;29.42;;;;;;;20.95;100.00;101191.63;4998088;28;20112;-82
2022/08/08 04:32:34;;;;;;;32.42;29.65;;;;;;;20.98;100.00;101201.91;5006936;28;20046;-83
2022/08/08 04:35:05;;;;;;;32.22;29.35;;;;;;;21.13;100.00;101205.75;5007298;28;20457;-82
2022/08/08 04:37:39;;;;;;;30.90;28.25;;;;;;;21.14;100.00;101199.28;5012132;28;20042;-83
2022/08/08 04:40:10;;;;;;;32.63;30.13;;;;;;;21.28;100.00;101198.50;5011808;28;20479;-82
2022/08/08 04:42:39;;;;;;;31.55;29.25;;;;;;;21.47;100.00;101196.16;5012171;28;20045;-84
2022/08/08 04:45:08;;;;;;;30.02;27.73;;;;;;;21.27;100.00;101202.31;5003628;28;20042;-83
2022/08/08 04:47:35;;;;;;;31.55;29.25;;;;;;;21.45;100.00;101202.88;5010607;28;20046;-84
2022/08/08 04:50:02;;;;;;;31.65;28.90;;;;;;;21.34;100.00;101206.63;5011997;28;20041;-83
2022/08/08 04:52:32;;;;;;;29.85;27.63;;;;;;;21.90;100.00;101201.34;5008298;28;20054;-83
2022/08/08 04:54:59;;;;;;;31.20;28.70;;;;;;;22.13;100.00;101205.41;5004777;28;20066;-83
2022/08/08 04:57:26;;;;;;;32.40;29.50;;;;;;;22.06;100.00;101200.28;5010317;28;20046;-84
2022/08/08 04:59:56;;;;;;;31.02;28.58;;;;;;;21.96;100.00;101209.19;5009473;28;20073;-82
2022/08/08 05:02:22;;;;;;;32.53;29.75;;;;;;;22.18;100.00;101208.16;5007374;28;20054;-82
2022/08/08 05:04:49;;;;;;;31.73;29.15;;;;;;;22.22;100.00;101203.81;5010951;28;20050;-80
2022/08/08 05:07:16;;;;;;;32.28;29.70;;;;;;;22.13;100.00;101208.09;5002981;28;20053;-78
2022/08/08 05:09:43;;;;;;;31.60;29.15;;;;;;;22.28;100.00;101212.72;5007666;28;20502;-81
2022/08/08 05:12:10;;;;;;;31.77;29.52;;;;;;;22.01;100.00;101208.38;5004370;28;20038;-81
2022/08/08 05:14:37;;;;;;;30.98;28.58;;;;;;;22.31;100.00;101204.88;5003867;28;20057;-80
2022/08/08 05:17:06;;;;;;;29.65;27.52;;;;;;;22.38;100.00;101215.41;4999498;28;20045;-77
2022/08/08 05:19:34;;;;;;;29.13;26.83;;;;;;;22.39;100.00;101217.03;5007941;28;20056;-78
2022/08/08 05:22:01;;;;;;;31.17;28.67;;;;;;;22.65;100.00;101215.09;5001507;28;20419;-80
2022/08/08 05:24:28;;;;;;;28.98;26.58;;;;;;;24.58;100.00;101215.00;5002039;28;20541;-81
2022/08/08 05:26:55;;;;;;;28.80;26.55;;;;;;;22.74;100.00;101223.47;5004934;28;20053;-80
2022/08/08 05:29:22;;;;;;;29.55;27.05;;;;;;;22.47;100.00;101226.50;5000645;28;20053;-80
2022/08/08 05:31:49;;;;;;;29.17;26.95;;;;;;;22.45;100.00;101234.91;5007693;28;20058;-78
2022/08/08 05:34:24;;;;;;;29.02;26.63;;;;;;;22.57;100.00;101227.31;5005228;28;20045;-79
2022/08/08 05:36:53;;;;;;;30.42;28.02;;;;;;;22.53;100.00;101231.63;5003281;28;20058;-79
2022/08/08 05:39:22;;;;;;;29.65;27.17;;;;;;;22.67;100.00;101228.38;5009806;28;20077;-77
2022/08/08 05:41:50;;;;;;;30.08;27.60;;;;;;;23.04;100.00;101230.72;5009066;28;20104;-80
2022/08/08 05:44:21;;;;;;;30.80;28.20;;;;;;;22.61;100.00;101230.28;5011353;28;20128;-78
2022/08/08 05:46:52;;;;;;;31.40;29.00;;;;;;;23.02;100.00;101233.69;5007037;28;20052;-81
2022/08/08 05:49:21;;;;;;;29.25;26.98;;;;;;;22.90;100.00;101237.75;5010901;28;20129;-79
2022/08/08 05:51:48;;;;;;;30.48;27.88;;;;;;;22.79;100.00;101243.22;5009127;28;20050;-80
2022/08/08 05:54:16;;;;;;;29.60;27.20;;;;;;;22.77;100.00;101245.38;5011377;28;20061;-79
2022/08/08 05:56:44;;;;;;;28.33;26.15;;;;;;;23.14;100.00;101252.34;5011723;28;20050;-81
2022/08/08 05:59:15;;;;;;;29.63;27.27;;;;;;;23.00;100.00;101251.31;5010408;28;20060;-80
2022/08/08 06:01:43;;;;;;;31.13;28.40;;;;;;;22.99;100.00;101253.19;5008261;28;20053;-79
2022/08/08 06:04:11;;;;;;;28.63;26.42;;;;;;;23.56;100.00;101251.03;5010279;28;20038;-81
2022/08/08 06:06:40;;;;;;;28.23;26.05;;;;;;;23.97;100.00;101256.25;5008215;28;20053;-78
2022/08/08 06:09:09;;;;;;;28.92;26.27;;;;;;;23.88;100.00;101260.66;5007526;28;20479;-78
2022/08/08 06:11:36;;;;;;;29.10;26.52;;;;;;;24.03;100.00;101257.84;5010782;28;20053;-80
2022/08/08 06:14:05;;;;;;;27.63;25.45;;;;;;;24.42;100.00;101246.13;5006887;28;20398;-81
2022/08/08 06:16:33;;;;;;;28.48;26.17;;;;;;;24.37;100.00;101251.56;5006798;28;20137;-79
2022/08/08 06:19:01;;;;;;;28.70;26.27;;;;;;;24.73;100.00;101256.69;5007048;28;20399;-81
2022/08/08 06:21:29;;;;;;;28.48;26.13;;;;;;;24.95;100.00;101250.72;5008269;28;20116;-79
2022/08/08 06:23:57;;;;;;;27.55;25.55;;;;;;;24.83;100.00;101257.38;5009270;28;20061;-79
2022/08/08 06:26:25;;;;;;;26.83;24.88;;;;;;;25.22;100.00;101258.31;5009246;28;20117;-77
2022/08/08 06:28:57;;;;;;;28.00;25.80;;;;;;;25.44;100.00;101255.03;5006424;28;20054;-78
2022/08/08 06:31:25;;;;;;;27.33;25.13;;;;;;;24.75;100.00;101258.03;5008195;28;20459;-81
2022/08/08 06:34:00;;;;;;;27.58;25.48;;;;;;;24.44;100.00;101255.59;5010118;28;20111;-80
2022/08/08 06:36:31;;;;;;;28.13;25.92;;;;;;;24.81;100.00;101250.59;5010117;28;20042;-81
2022/08/08 06:39:01;;;;;;;29.45;26.80;;;;;;;25.07;100.00;101254.66;5009838;28;20457;-78
2022/08/08 06:41:32;;;;;;;28.98;26.55;;;;;;;25.03;100.00;101253.63;5010428;28;20088;-81
2022/08/08 06:44:02;;;;;;;27.95;25.83;;;;;;;24.98;100.00;101253.66;5009637;28;20057;-80
2022/08/08 06:46:29;;;;;;;28.08;25.67;;;;;;;24.78;100.00;101251.19;5008378;28;20046;-78
2022/08/08 06:48:56;;;;;;;27.70;25.42;;;;;;;25.72;100.00;101255.97;5008235;28;20057;-81
2022/08/08 06:51:23;;;;;;;27.58;25.48;;;;;;;25.54;100.00;101255.72;5009592;28;20039;-80
2022/08/08 06:53:50;;;;;;;26.75;24.75;;;;;;;25.57;100.00;101254.31;5007481;28;20038;-79
2022/08/08 06:56:19;;;;;;;28.10;25.80;;;;;;;25.92;100.00;101252.19;5006748;28;20112;-79
2022/08/08 06:58:46;;;;;;;27.90;25.60;;;;;;;25.65;100.00;101250.13;5009753;28;20442;-81
2022/08/08 07:01:13;;;;;;;27.40;25.40;;;;;;;26.17;100.00;101259.13;5003843;28;20458;-78
2022/08/08 07:03:52;;;;;;;28.95;26.65;;;;;;;25.92;100.00;101249.47;5001057;28;20144;-79
2022/08/08 07:06:22;;;;;;;27.63;25.52;;;;;;;26.19;100.00;101249.56;5001984;28;20125;-81
2022/08/08 07:08:53;;;;;;;28.05;25.85;;;;;;;26.17;100.00;101240.91;5004019;28;20050;-81
2022/08/08 07:11:28;;;;;;;28.40;26.00;;;;;;;26.30;100.00;101233.88;5003677;28;20065;-79
2022/08/08 07:14:01;;;;;;;27.20;24.85;;;;;;;25.85;100.00;101240.88;5004361;28;20526;-80
2022/08/08 07:16:44;;;;;;;27.08;24.88;;;;;;;26.41;100.00;101231.75;5006470;28;20128;-82
2022/08/08 07:19:22;;;;;;;27.60;25.50;;;;;;;26.73;100.00;101236.38;5000229;28;20054;-80
2022/08/08 07:21:55;;;;;;;27.95;25.73;;;;;;;26.64;100.00;101232.75;5008227;28;20486;-80
2022/08/08 07:24:26;;;;;;;28.83;26.63;;;;;;;26.75;100.00;101236.88;5006757;28;20062;-78
2022/08/08 07:26:55;;;;;;;31.00;28.60;;;;;;;26.65;100.00;101237.88;5002025;28;20058;-82
2022/08/08 07:29:24;;;;;;;28.88;26.52;;;;;;;26.65;100.00;101235.16;5000416;28;20061;-80
2022/08/08 07:31:51;;;;;;;29.73;26.88;;;;;;;26.46;100.00;101231.66;4994931;28;20057;-79
2022/08/08 07:34:18;;;;;;;29.00;26.80;;;;;;;26.29;100.00;101232.22;5002734;28;20073;-78
2022/08/08 07:36:47;;;;;;;28.02;25.92;;;;;;;26.49;100.00;101231.09;5005377;28;20050;-79
2022/08/08 07:39:14;;;;;;;28.00;25.92;;;;;;;26.96;100.00;101237.28;5006622;28;20477;-78
2022/08/08 07:41:43;;;;;;;28.17;25.95;;;;;;;27.13;100.00;101234.72;5009222;28;20418;-78
2022/08/08 07:44:12;;;;;;;27.90;25.50;;;;;;;26.95;100.00;101246.56;5008575;28;20045;-81
2022/08/08 07:46:39;;;;;;;29.17;26.83;;;;;;;27.29;100.00;101240.69;5004957;28;20475;-78
2022/08/08 07:49:05;;;;;;;28.23;26.02;;;;;;;27.55;100.00;101232.75;5007154;28;20118;-78
2022/08/08 07:51:33;;;;;;;33.95;31.63;;;;;;;28.12;100.00;101232.25;5004198;28;20470;-81
2022/08/08 07:54:11;;;;;;;29.48;27.23;;;;;;;27.83;100.00;101247.13;4999225;28;20525;-79
2022/08/08 07:56:48;;;;;;;29.90;27.60;;;;;;;27.00;100.00;101235.56;5009630;28;20132;-79
2022/08/08 07:59:16;;;;;;;31.23;28.80;;;;;;;27.59;100.00;101239.19;5009078;28;20060;-79
2022/08/08 08:01:55;;;;;;;30.52;28.17;;;;;;;27.97;100.00;101233.44;5001681;28;20390;-80
2022/08/08 08:04:28;;;;;;;32.03;29.63;;;;;;;28.73;100.00;101229.84;5003831;28;20057;-82
2022/08/08 08:06:58;;;;;;;36.90;34.15;;;;;;;28.97;100.00;101237.63;5003164;28;20081;-78
2022/08/08 08:09:26;;;;;;;32.20;29.90;;;;;;;29.24;100.00;101231.13;5005397;28;20502;-79
2022/08/08 08:11:56;;;;;;;31.73;29.50;;;;;;;28.90;100.00;101231.81;5005722;28;20081;-81
2022/08/08 08:14:30;;;;;;;30.85;28.45;;;;;;;28.69;100.00;101237.06;5006321;28;20061;-78
2022/08/08 08:16:58;;;;;;;30.80;28.60;;;;;;;29.04;100.00;101228.97;5005313;28;20112;-81
2022/08/08 08:19:31;;;;;;;41.03;38.47;;;;;;;28.67;98.45;101231.09;5002932;28;20042;-79
2022/08/08 08:21:58;;;;;;;31.67;29.33;;;;;;;28.94;98.66;101235.53;5001799;28;20070;-80
2022/08/08 08:24:26;;;;;;;30.67;28.48;;;;;;;29.17;98.07;101230.78;5003020;28;20046;-80
2022/08/08 08:26:53;;;;;;;28.33;26.40;;;;;;;29.14;95.95;101231.41;5004885;28;20084;-78
2022/08/08 08:29:20;;;;;;;27.90;25.95;;;;;;;29.59;92.13;101229.22;5008657;28;20056;-83
2022/08/08 08:31:48;;;;;;;28.73;26.45;;;;;;;29.29;95.17;101227.41;5002513;28;20404;-78
2022/08/08 08:34:15;;;;;;;30.77;28.77;;;;;;;29.43;92.13;101230.81;5002255;28;20121;-80
2022/08/08 08:36:43;;;;;;;31.15;29.08;;;;;;;29.10;91.04;101227.72;5004242;28;20758;-81
2022/08/08 08:39:10;;;;;;;29.92;27.63;;;;;;;29.32;95.88;101216.66;5002389;28;20077;-80
2022/08/08 08:41:45;;;;;;;30.27;28.00;;;;;;;29.41;94.07;101222.94;5011796;28;20050;-86
2022/08/08 08:44:19;;;;;;;37.08;34.17;;;;;;;29.72;87.58;101207.50;5005004;28;20053;-88
2022/08/08 08:47:09;;;;;;;30.38;28.23;;;;;;;29.86;91.41;101211.66;5002199;28;20054;-87
2022/08/08 08:49:56;;;;;;;46.72;44.00;;;;;;;29.70;89.42;101212.50;5009732;28;20061;-87
2022/08/08 08:52:24;;;;;;;32.60;30.33;;;;;;;29.45;97.02;101209.41;5010181;28;20057;-86
2022/08/08 08:54:55;;;;;;;39.65;37.10;;;;;;;29.80;90.27;101206.66;5008180;28;20483;-86
2022/08/08 08:57:34;;;;;;;35.80;33.50;;;;;;;29.83;86.29;101204.09;5007686;28;20057;-86
2022/08/08 09:00:02;;;;;;;47.42;44.47;;;;;;;29.91;87.60;101210.69;5011776;28;20065;-86
2022/08/08 10:26:46;;;;;;;32.53;30.30;;;;;;;32.80;58.29;101121.84;4935592;29;20105;-89
2022/08/08 10:30:13;;;;;;;32.50;30.40;;;;;;;32.81;57.00;101106.16;4872228;29;20057;-89
2022/08/08 10:36:25;;;;;;;32.55;30.05;;;;;;;34.24;54.12;101096.25;4877767;29;20398;-87
2022/08/08 11:40:56;;;;;;;34.17;31.75;;;;;;;34.11;48.80;101031.41;4935314;29;20374;-88
2022/08/08 12:13:23;;;;;;;33.97;31.00;;;;;;;35.29;40.59;100992.47;5811210;23;20049;-86
2022/08/08 12:16:11;;;;;;;36.67;34.15;;;;;;;34.97;40.70;100989.88;5025950;28;20049;-89
2022/08/08 12:19:14;;;;;;;36.63;34.15;;;;;;;35.10;41.62;100988.59;5017622;28;20509;-88
2022/08/08 12:22:05;;;;;;;32.33;30.13;;;;;;;35.44;41.97;100990.75;5016612;28;20050;-87
2022/08/08 12:24:48;;;;;;;34.05;31.60;;;;;;;35.70;39.31;100978.94;5025598;28;20138;-87
2022/08/08 12:27:24;;;;;;;35.72;33.30;;;;;;;35.79;39.60;100979.47;5025307;28;20046;-87
2022/08/08 12:30:14;;;;;;;36.47;33.80;;;;;;;34.56;44.59;100977.66;5021204;28;20107;-88
2022/08/08 12:32:58;;;;;;;32.80;30.42;;;;;;;35.19;40.99;100973.72;5030932;28;20056;-86
2022/08/08 12:35:51;;;;;;;30.17;28.05;;;;;;;34.92;41.90;100972.81;5023423;28;20110;-86
2022/08/08 12:38:47;;;;;;;36.25;33.88;;;;;;;35.66;38.44;100965.09;5019307;28;20046;-90
2022/08/08 13:13:50;;;;;;;56.80;35.17;;;;;;;34.87;39.18;100949.91;4986174;28;20046;-88
2022/08/08 13:23:32;;;;;;;40.55;37.47;;;;;;;35.73;35.63;100928.47;4912413;29;20107;-89
2022/08/08 13:29:57;;;;;;;36.30;33.65;;;;;;;34.95;36.16;100916.91;4918351;29;20118;-88
2022/08/08 13:32:54;;;;;;;37.05;34.08;;;;;;;35.69;37.04;100917.38;4992384;28;20046;-89
2022/08/08 13:35:44;;;;;;;35.58;33.03;;;;;;;34.40;38.44;100920.59;4991118;28;20089;-90
2022/08/08 13:38:39;;;;;;;37.78;34.65;;;;;;;35.18;34.69;100917.75;4994466;28;20053;-88
2022/08/08 13:51:29;;;;;;;33.60;31.20;;;;;;;35.18;34.33;100900.38;4991362;28;20049;-88
2022/08/08 14:09:53;;;;;;;39.28;35.92;;;;;;;34.74;32.48;100887.78;5983701;23;20025;-85
2022/08/08 14:36:33;;;;;;;31.60;29.10;;;;;;;34.36;32.14;100861.84;4864234;29;20060;-86
2022/08/08 14:39:04;;;;;;;29.83;26.77;;;;;;;34.46;31.02;100868.72;4907853;29;20048;-89
2022/08/08 14:41:41;;;;;;;30.33;27.08;;;;;;;34.67;33.93;100870.31;4915708;29;20308;-89
2022/08/08 14:44:09;;;;;;;33.63;30.98;;;;;;;34.83;29.44;100868.25;4954888;28;20137;-88
2022/08/08 14:46:58;;;;;;;28.02;25.48;;;;;;;34.73;30.89;100866.09;4974024;28;20051;-91
2022/08/08 14:49:39;;;;;;;27.05;24.95;;;;;;;34.57;36.49;100860.69;4975608;28;20377;-85
2022/08/08 14:55:56;;;;;;;26.35;24.55;;;;;;;33.86;40.25;100854.47;4973536;28;20042;-86
2022/08/08 15:11:10;;;;;;;29.15;26.60;;;;;;;34.53;33.99;100848.78;4984771;28;20059;-90
2022/08/08 15:17:12;;;;;;;30.60;28.02;;;;;;;34.21;35.55;100848.94;4945247;28;20499;-89
2022/08/08 15:26:27;;;;;;;29.50;27.10;;;;;;;33.27;38.92;100854.31;4993971;28;20399;-89
2022/08/08 15:57:10;;;;;;;29.45;27.45;;;;;;;33.37;31.58;100849.44;4985451;28;20065;-89
2022/08/08 16:00:02;;;;;;;29.20;27.00;;;;;;;33.36;39.22;100847.84;4976974;28;20131;-91
2022/08/08 16:03:16;;;;;;;;;;;;;;;;;;;;;
2022/08/08 16:06:22;;;;;;;28.20;26.27;;;;;;;33.23;31.61;100847.94;4955555;28;20486;-92
2022/08/08 16:09:01;;;;;;;29.15;27.20;;;;;;;32.94;40.58;100854.66;5001312;28;20050;-89
2022/08/08 16:11:59;;;;;;;24.83;23.02;;;;;;;32.32;35.63;100861.63;5010780;28;20050;-88
2022/08/08 16:14:38;;;;;;;26.25;24.20;;;;;;;32.49;33.97;100857.78;4998290;28;20058;-89
2022/08/08 16:17:20;;;;;;;29.08;27.08;;;;;;;32.90;36.16;100853.78;4998187;28;20049;-88
2022/08/08 16:19:57;;;;;;;27.08;25.13;;;;;;;32.71;35.84;100859.97;4990395;28;20117;-87
2022/08/08 16:22:37;;;;;;;27.58;25.20;;;;;;;32.69;41.81;100859.53;4980550;28;20472;-85
2022/08/08 16:25:09;;;;;;;27.10;24.98;;;;;;;32.39;36.60;100854.38;4986597;28;20051;-89
2022/08/08 16:27:42;;;;;;;27.75;25.75;;;;;;;32.20;43.51;100856.97;4998229;28;20050;-87
2022/08/08 16:30:14;;;;;;;29.27;27.38;;;;;;;32.23;42.45;100855.50;4989112;28;20113;-87
2022/08/08 16:32:54;;;;;;;34.58;31.88;;;;;;;31.87;44.46;100863.44;4993845;28;20058;-85
2022/08/08 16:35:24;;;;;;;27.48;25.45;;;;;;;31.52;40.61;100879.63;4997747;28;20121;-87
2022/08/08 16:37:51;;;;;;;29.30;26.17;;;;;;;31.64;46.11;100890.59;4999861;28;20094;-87
2022/08/08 16:40:20;;;;;;;26.33;24.42;;;;;;;32.07;37.24;100882.88;4992985;28;20050;-85
2022/08/08 16:43:12;;;;;;;27.75;24.92;;;;;;;32.06;36.84;100890.31;4990467;28;20066;-88
2022/08/08 16:45:43;;;;;;;27.20;25.20;;;;;;;31.94;38.00;100904.09;4998095;28;20061;-86
2022/08/08 16:48:12;;;;;;;28.95;26.33;;;;;;;31.68;39.15;100908.00;4998090;28;20546;-87
2022/08/08 16:50:58;;;;;;;29.98;27.58;;;;;;;31.58;39.82;100907.66;4982588;28;20046;-86
2022/08/08 16:53:34;;;;;;;29.17;26.80;;;;;;;31.38;41.39;100903.84;4990712;28;20113;-87
2022/08/08 16:56:28;;;;;;;29.27;26.90;;;;;;;31.20;43.28;100904.06;4999740;28;20054;-88
2022/08/08 16:59:07;;;;;;;29.38;26.85;;;;;;;31.33;39.99;100904.06;4993345;28;20054;-85
2022/08/08 17:01:35;;;;;;;30.25;27.80;;;;;;;31.23;40.26;100897.88;4996884;28;20402;-85
2022/08/08 17:15:02;;;;;;;28.35;26.23;;;;;;;31.14;37.21;100921.09;4937150;29;20173;-88
2022/08/08 17:21:31;;;;;;;28.85;26.35;;;;;;;31.10;38.11;100917.41;4936197;29;20050;-87
2022/08/08 17:24:08;;;;;;;30.05;27.85;;;;;;;31.08;38.38;100919.72;4922536;28;20498;-86
2022/08/08 17:27:05;;;;;;;33.67;31.08;;;;;;;31.06;38.23;100938.44;4979397;28;20479;-89
2022/08/08 17:30:36;;;;;;;32.80;30.60;;;;;;;30.85;37.96;100942.03;4993972;28;20399;-88
2022/08/08 17:43:42;;;;;;;28.92;26.98;;;;;;;30.89;37.28;100950.38;4914048;29;20124;-84
2022/08/08 17:47:07;;;;;;;28.90;26.73;;;;;;;30.83;36.56;100948.97;4912661;29;20056;-88
2022/08/08 17:49:50;;;;;;;24.88;22.98;;;;;;;30.72;35.77;100951.31;4926686;29;20055;-88
2022/08/08 17:55:54;;;;;;;26.58;24.30;;;;;;;30.56;35.24;100953.84;4937203;29;20508;-89
2022/08/08 17:58:27;;;;;;;32.88;30.77;;;;;;;30.52;34.96;100955.69;4924821;29;20138;-88
2022/08/08 18:01:20;;;;;;;26.10;23.95;;;;;;;30.51;36.16;100956.81;4918686;29;20099;-88
2022/08/08 18:03:49;;;;;;;47.58;42.83;;;;;;;30.36;35.55;100963.72;4910294;29;20052;-89
2022/08/08 18:06:55;;;;;;;49.20;44.63;;;;;;;30.43;35.11;100963.16;4914390;29;20052;-88
2022/08/08 18:09:37;;;;;;;54.65;49.67;;;;;;;30.27;36.64;100971.97;4976644;28;20043;-87
2022/08/08 18:12:13;;;;;;;52.03;46.80;;;;;;;30.22;36.59;100968.63;4962808;28;20106;-87
2022/08/08 18:14:48;;;;;;;25.80;23.70;;;;;;;30.08;38.42;100975.16;4972920;28;20492;-85
2022/08/08 18:17:33;;;;;;;24.75;22.63;;;;;;;30.01;38.05;100965.84;4976607;28;20134;-87
2022/08/08 18:20:26;;;;;;;51.42;46.40;;;;;;;29.83;39.14;100973.34;4980261;28;20050;-86
2022/08/08 18:22:55;;;;;;;24.95;23.13;;;;;;;29.85;38.97;100971.88;4957736;28;20050;-87
2022/08/08 18:25:22;;;;;;;30.50;28.60;;;;;;;29.77;39.42;100969.19;4966809;28;20110;-87
2022/08/08 18:28:04;;;;;;;30.92;28.73;;;;;;;29.65;39.49;100976.19;4972288;28;20063;-85
2022/08/08 18:30:41;;;;;;;30.50;28.33;;;;;;;29.56;39.53;100989.06;4957102;29;20062;-88
2022/08/08 18:33:10;;;;;;;31.50;29.13;;;;;;;29.49;39.36;100991.50;4975285;28;20042;-87
2022/08/08 18:36:01;;;;;;;33.70;27.10;;;;;;;29.39;39.46;100995.38;4976012;28;20050;-87
2022/08/08 18:38:29;;;;;;;30.23;28.13;;;;;;;29.30;39.66;100996.53;4979525;28;20057;-87
2022/08/08 18:41:51;;;;;;;29.75;27.48;;;;;;;29.23;39.75;100997.03;4976389;28;20047;-86
2022/08/08 18:44:41;;;;;;;29.95;27.75;;;;;;;29.07;40.76;101001.41;4994629;28;20446;-86
2022/08/08 18:47:48;;;;;;;28.08;25.80;;;;;;;28.90;41.01;100999.47;4980094;28;20046;-88
2022/08/08 18:50:18;;;;;;;29.77;27.00;;;;;;;28.74;42.08;101010.88;4973775;28;20062;-87
2022/08/08 18:52:49;;;;;;;25.15;22.95;;;;;;;28.63;42.56;101006.06;4971112;28;20060;-87
2022/08/08 18:55:28;;;;;;;33.47;31.17;;;;;;;28.39;42.39;101007.28;4976907;28;20050;-85
2022/08/08 18:57:55;;;;;;;35.78;32.67;;;;;;;28.36;42.15;101020.78;4977582;28;20372;-85
2022/08/08 19:00:28;;;;;;;33.22;30.75;;;;;;;28.20;42.43;101013.06;4974991;28;20050;-86
2022/08/08 19:03:31;;;;;;;33.17;30.73;;;;;;;28.19;42.85;101016.88;5107803;23;20089;-85
2022/08/08 19:06:30;;;;;;;32.13;29.83;;;;;;;28.07;43.46;101024.88;4986067;28;20050;-87
2022/08/08 19:08:58;;;;;;;31.35;29.02;;;;;;;27.70;45.25;101024.22;4994965;28;20058;-88
2022/08/08 19:11:25;;;;;;;35.25;32.95;;;;;;;27.64;45.29;101030.94;4975528;28;20046;-85
2022/08/08 19:14:09;;;;;;;39.22;36.80;;;;;;;27.43;46.22;101029.88;4986899;28;20106;-85
2022/08/08 19:16:40;;;;;;;31.45;29.00;;;;;;;26.75;47.51;101039.91;4994890;28;20467;-85
2022/08/08 19:19:09;;;;;;;31.92;29.20;;;;;;;26.61;50.33;101037.22;4994434;28;20058;-86